createdAt,value
2023-07-20T00:02:50.890Z,14.38
2023-07-20T00:03:50.814Z,14.38
2023-07-20T00:04:50.757Z,14.34
2023-07-20T00:05:50.764Z,14.57
2023-07-20T00:06:50.751Z,14.41
2023-07-20T00:07:50.726Z,14.38
2023-07-20T00:08:50.716Z,14.36
2023-07-20T00:09:50.706Z,14.29
2023-07-20T00:10:50.718Z,14.41
2023-07-20T00:11:50.690Z,14.35
2023-07-20T00:12:50.683Z,14.36
2023-07-20T00:13:50.674Z,14.44
2023-07-20T00:14:50.667Z,14.54
2023-07-20T00:15:50.649Z,14.45
2023-07-20T00:16:50.661Z,14.44
2023-07-20T00:17:50.631Z,14.44
2023-07-20T00:18:50.632Z,14.42
2023-07-20T00:19:50.606Z,14.46
2023-07-20T00:20:50.567Z,14.42
2023-07-20T00:21:50.561Z,14.57
2023-07-20T00:22:50.592Z,14.41
2023-07-20T00:23:50.536Z,14.41
2023-07-20T00:24:50.532Z,14.38
2023-07-20T00:25:50.544Z,14.29
2023-07-20T00:26:50.603Z,14.39
2023-07-20T00:27:50.512Z,14.29
2023-07-20T00:28:50.482Z,14.39
2023-07-20T00:29:50.469Z,14.27
2023-07-20T00:30:50.545Z,14.30
2023-07-20T00:31:51.862Z,14.24
2023-07-20T00:32:50.488Z,14.21
2023-07-20T00:33:50.439Z,14.16
2023-07-20T00:34:50.440Z,14.20
2023-07-20T00:35:50.421Z,14.20
2023-07-20T00:36:50.414Z,14.17
2023-07-20T00:37:50.382Z,14.08
2023-07-20T00:38:50.382Z,14.17
2023-07-20T00:39:50.391Z,14.19
2023-07-20T00:40:50.350Z,14.17
2023-07-20T00:41:50.337Z,14.05
2023-07-20T00:42:50.334Z,14.11
2023-07-20T00:43:50.308Z,14.06
2023-07-20T00:44:50.299Z,14.08
2023-07-20T00:45:50.328Z,13.88
2023-07-20T00:46:50.356Z,13.88
2023-07-20T00:47:50.327Z,13.94
2023-07-20T00:48:50.259Z,13.91
2023-07-20T00:49:50.261Z,13.94
2023-07-20T00:50:50.262Z,13.87
2023-07-20T00:51:50.239Z,13.88
2023-07-20T00:52:50.214Z,13.91
2023-07-20T00:53:50.217Z,13.90
2023-07-20T00:54:50.207Z,13.84
2023-07-20T00:55:50.186Z,13.81
2023-07-20T00:56:50.202Z,13.81
2023-07-20T00:57:50.161Z,13.84
2023-07-20T00:58:50.145Z,13.88
2023-07-20T00:59:50.140Z,13.75
2023-07-20T01:00:50.130Z,13.86
2023-07-20T01:01:50.187Z,13.80
2023-07-20T01:02:50.215Z,13.83
2023-07-20T01:03:50.142Z,13.76
2023-07-20T01:04:50.082Z,13.72
2023-07-20T01:05:50.076Z,13.57
2023-07-20T01:06:50.085Z,13.81
2023-07-20T01:07:50.054Z,13.69
2023-07-20T01:08:50.060Z,13.73
2023-07-20T01:09:50.028Z,13.63
2023-07-20T01:10:50.018Z,13.59
2023-07-20T01:11:50.006Z,13.66
2023-07-20T01:12:49.994Z,13.57
2023-07-20T01:13:49.980Z,13.59
2023-07-20T01:14:49.992Z,13.51
2023-07-20T01:15:49.957Z,13.62
2023-07-20T01:16:50.052Z,13.48
2023-07-20T01:17:49.957Z,13.48
2023-07-20T01:18:49.946Z,13.61
2023-07-20T01:19:49.925Z,13.54
2023-07-20T01:20:49.927Z,13.53
2023-07-20T01:21:49.895Z,13.38
2023-07-20T01:22:50.012Z,13.48
2023-07-20T01:23:49.993Z,13.46
2023-07-20T01:24:49.859Z,13.38
2023-07-20T01:25:49.865Z,13.48
2023-07-20T01:26:49.842Z,13.43
2023-07-20T01:27:49.833Z,13.46
2023-07-20T01:28:49.825Z,13.48
2023-07-20T01:29:49.809Z,13.48
2023-07-20T01:30:49.807Z,13.47
2023-07-20T01:31:49.823Z,13.43
2023-07-20T01:32:49.884Z,13.41
2023-07-20T01:33:49.769Z,13.39
2023-07-20T01:34:49.750Z,13.47
2023-07-20T01:35:49.740Z,13.32
2023-07-20T01:36:49.732Z,13.50
2023-07-20T01:37:49.716Z,13.39
2023-07-20T01:38:49.748Z,13.36
2023-07-20T01:39:49.694Z,13.46
2023-07-20T01:40:49.681Z,13.36
2023-07-20T01:41:49.675Z,13.38
2023-07-20T01:42:49.667Z,13.43
2023-07-20T01:43:49.661Z,13.47
2023-07-20T01:44:49.640Z,13.44
2023-07-20T01:45:49.667Z,13.43
2023-07-20T01:46:49.638Z,13.35
2023-07-20T01:47:49.696Z,13.36
2023-07-20T01:48:49.649Z,13.44
2023-07-20T01:49:49.582Z,13.25
2023-07-20T01:50:49.580Z,13.43
2023-07-20T01:51:49.582Z,13.38
2023-07-20T01:52:49.556Z,13.36
2023-07-20T01:53:49.548Z,13.32
2023-07-20T01:54:49.560Z,13.35
2023-07-20T01:55:49.521Z,13.35
2023-07-20T01:56:49.509Z,13.21
2023-07-20T01:57:49.506Z,13.31
2023-07-20T01:58:49.497Z,13.22
2023-07-20T01:59:49.469Z,13.31
2023-07-20T02:00:49.474Z,13.16
2023-07-20T02:01:49.515Z,13.31
2023-07-20T02:02:49.492Z,13.41
2023-07-20T02:03:49.430Z,13.31
2023-07-20T02:04:49.461Z,13.32
2023-07-20T02:05:49.410Z,13.46
2023-07-20T02:06:49.411Z,13.31
2023-07-20T02:07:49.413Z,13.36
2023-07-20T02:08:49.382Z,13.27
2023-07-20T02:09:49.379Z,13.44
2023-07-20T02:10:49.389Z,13.32
2023-07-20T02:11:49.348Z,13.32
2023-07-20T02:12:49.332Z,13.32
2023-07-20T02:13:49.322Z,13.41
2023-07-20T02:14:49.348Z,13.44
2023-07-20T02:15:49.329Z,13.39
2023-07-20T02:16:49.286Z,13.46
2023-07-20T02:17:49.291Z,13.53
2023-07-20T02:18:49.264Z,13.55
2023-07-20T02:19:49.266Z,13.54
2023-07-20T02:20:49.244Z,13.54
2023-07-20T02:21:49.232Z,13.68
2023-07-20T02:22:49.284Z,13.61
2023-07-20T02:23:49.209Z,13.63
2023-07-20T02:24:49.195Z,13.62
2023-07-20T02:25:49.197Z,13.65
2023-07-20T02:26:49.202Z,13.69
2023-07-20T02:27:49.166Z,13.71
2023-07-20T02:28:49.152Z,13.75
2023-07-20T02:29:49.162Z,13.63
2023-07-20T02:30:49.140Z,13.63
2023-07-20T02:31:49.193Z,13.76
2023-07-20T02:32:49.201Z,13.73
2023-07-20T02:33:49.093Z,13.66
2023-07-20T02:34:49.090Z,13.73
2023-07-20T02:35:49.072Z,13.72
2023-07-20T02:36:49.076Z,13.73
2023-07-20T02:37:49.050Z,13.69
2023-07-20T02:38:49.046Z,13.87
2023-07-20T02:39:49.029Z,13.84
2023-07-20T02:40:49.037Z,13.87
2023-07-20T02:41:49.025Z,13.80
2023-07-20T02:42:49.021Z,13.87
2023-07-20T02:43:48.990Z,13.88
2023-07-20T02:44:48.973Z,13.83
2023-07-20T02:45:48.968Z,13.83
2023-07-20T02:46:49.032Z,13.84
2023-07-20T02:47:48.972Z,13.91
2023-07-20T02:48:48.932Z,13.87
2023-07-20T02:49:48.921Z,13.81
2023-07-20T02:50:48.931Z,13.86
2023-07-20T02:51:48.900Z,13.99
2023-07-20T02:52:48.917Z,13.93
2023-07-20T02:53:48.878Z,13.88
2023-07-20T02:54:48.883Z,13.88
2023-07-20T02:55:48.850Z,13.84
2023-07-20T02:56:48.838Z,13.79
2023-07-20T02:57:48.897Z,13.80
2023-07-20T02:58:48.853Z,13.81
2023-07-20T02:59:48.832Z,13.80
2023-07-20T03:00:48.863Z,13.66
2023-07-20T03:01:48.787Z,13.71
2023-07-20T03:02:48.892Z,13.81
2023-07-20T03:03:48.889Z,13.75
2023-07-20T03:04:48.759Z,13.86
2023-07-20T03:05:48.751Z,13.86
2023-07-20T03:06:48.773Z,13.81
2023-07-20T03:07:48.721Z,13.80
2023-07-20T03:08:48.706Z,13.91
2023-07-20T03:09:48.697Z,13.80
2023-07-20T03:10:48.705Z,13.90
2023-07-20T03:11:48.683Z,14.01
2023-07-20T03:12:48.668Z,13.93
2023-07-20T03:13:48.647Z,13.94
2023-07-20T03:14:48.682Z,13.88
2023-07-20T03:15:48.630Z,13.84
2023-07-20T03:16:48.649Z,13.72
2023-07-20T03:17:48.664Z,13.72
2023-07-20T03:18:48.599Z,13.81
2023-07-20T03:19:48.577Z,13.75
2023-07-20T03:20:48.567Z,13.72
2023-07-20T03:21:48.584Z,13.66
2023-07-20T03:22:48.618Z,13.68
2023-07-20T03:23:48.550Z,13.59
2023-07-20T03:24:48.523Z,13.51
2023-07-20T03:25:48.515Z,13.53
2023-07-20T03:26:48.502Z,13.54
2023-07-20T03:27:48.514Z,13.53
2023-07-20T03:28:48.490Z,13.55
2023-07-20T03:29:48.493Z,13.54
2023-07-20T03:30:48.556Z,13.57
2023-07-20T03:31:48.466Z,13.51
2023-07-20T03:32:48.501Z,13.57
2023-07-20T03:33:48.437Z,13.59
2023-07-20T03:34:48.419Z,13.51
2023-07-20T03:35:48.421Z,13.41
2023-07-20T03:36:48.415Z,13.35
2023-07-20T03:37:48.385Z,13.39
2023-07-20T03:38:48.370Z,13.38
2023-07-20T03:39:48.364Z,13.35
2023-07-20T03:40:48.346Z,13.48
2023-07-20T03:41:48.346Z,13.39
2023-07-20T03:42:48.319Z,13.32
2023-07-20T03:43:48.310Z,13.29
2023-07-20T03:44:48.302Z,13.32
2023-07-20T03:45:48.293Z,13.35
2023-07-20T03:46:48.379Z,13.24
2023-07-20T03:47:48.397Z,13.27
2023-07-20T03:48:48.252Z,13.19
2023-07-20T03:49:48.245Z,13.24
2023-07-20T03:50:48.329Z,13.19
2023-07-20T03:51:48.253Z,13.21
2023-07-20T03:52:48.218Z,13.19
2023-07-20T03:53:48.214Z,13.16
2023-07-20T03:54:48.201Z,13.10
2023-07-20T03:55:48.188Z,13.10
2023-07-20T03:56:48.172Z,13.07
2023-07-20T03:57:48.221Z,13.06
2023-07-20T03:58:48.169Z,13.13
2023-07-20T03:59:48.138Z,12.94
2023-07-20T04:00:48.146Z,13.07
2023-07-20T04:01:48.156Z,13.04
2023-07-20T04:02:48.195Z,13.06
2023-07-20T04:03:49.936Z,13.03
2023-07-20T04:04:48.090Z,13.01
2023-07-20T04:05:48.106Z,13.06
2023-07-20T04:06:48.055Z,12.92
2023-07-20T04:07:48.074Z,12.96
2023-07-20T04:08:48.061Z,12.99
2023-07-20T04:09:48.032Z,13.03
2023-07-20T04:10:48.029Z,13.04
2023-07-20T04:11:48.008Z,12.99
2023-07-20T04:12:47.996Z,12.92
2023-07-20T04:13:48.001Z,13.04
2023-07-20T04:14:47.977Z,13.03
2023-07-20T04:15:47.962Z,13.07
2023-07-20T04:16:47.968Z,12.96
2023-07-20T04:17:47.969Z,12.92
2023-07-20T04:18:47.964Z,13.01
2023-07-20T04:19:47.916Z,12.95
2023-07-20T04:20:47.911Z,13.14
2023-07-20T04:21:47.917Z,13.13
2023-07-20T04:22:47.926Z,13.13
2023-07-20T04:23:47.880Z,13.07
2023-07-20T04:24:47.879Z,13.03
2023-07-20T04:25:47.844Z,13.01
2023-07-20T04:26:47.849Z,12.89
2023-07-20T04:27:47.832Z,13.01
2023-07-20T04:28:47.816Z,13.03
2023-07-20T04:29:47.799Z,13.06
2023-07-20T04:30:47.801Z,13.07
2023-07-20T04:31:47.876Z,13.06
2023-07-20T04:32:48.300Z,13.07
2023-07-20T04:33:47.767Z,13.07
2023-07-20T04:34:47.775Z,13.21
2023-07-20T04:35:47.750Z,13.12
2023-07-20T04:36:47.877Z,13.16
2023-07-20T04:37:47.712Z,13.31
2023-07-20T04:38:47.706Z,13.28
2023-07-20T04:39:47.710Z,13.24
2023-07-20T04:40:47.681Z,13.44
2023-07-20T04:41:47.687Z,13.29
2023-07-20T04:42:47.658Z,13.47
2023-07-20T04:43:47.713Z,13.50
2023-07-20T04:44:47.641Z,13.41
2023-07-20T04:45:47.631Z,13.51
2023-07-20T04:46:47.751Z,13.54
2023-07-20T04:47:47.649Z,13.55
2023-07-20T04:48:47.678Z,13.53
2023-07-20T04:49:47.596Z,13.54
2023-07-20T04:50:47.684Z,13.50
2023-07-20T04:51:47.601Z,13.53
2023-07-20T04:52:47.569Z,13.53
2023-07-20T04:53:47.562Z,13.55
2023-07-20T04:54:47.532Z,13.38
2023-07-20T04:55:47.523Z,13.53
2023-07-20T04:56:48.501Z,13.31
2023-07-20T04:57:47.515Z,13.47
2023-07-20T04:58:47.499Z,13.44
2023-07-20T04:59:47.498Z,13.47
2023-07-20T05:00:47.462Z,13.46
2023-07-20T05:01:47.523Z,13.48
2023-07-20T05:02:47.569Z,13.51
2023-07-20T05:03:47.880Z,13.53
2023-07-20T05:04:47.429Z,13.54
2023-07-20T05:05:49.597Z,13.54
2023-07-20T05:06:47.433Z,13.55
2023-07-20T05:07:47.404Z,13.55
2023-07-20T05:08:47.383Z,13.59
2023-07-20T05:09:47.408Z,13.61
2023-07-20T05:10:47.406Z,13.55
2023-07-20T05:11:47.345Z,13.59
2023-07-20T05:12:47.339Z,13.51
2023-07-20T05:13:47.322Z,13.53
2023-07-20T05:14:47.322Z,13.57
2023-07-20T05:15:47.299Z,13.53
2023-07-20T05:16:47.354Z,13.51
2023-07-20T05:17:47.308Z,13.53
2023-07-20T05:18:47.279Z,13.65
2023-07-20T05:19:47.264Z,13.71
2023-07-20T05:20:47.259Z,13.68
2023-07-20T05:21:47.232Z,13.75
2023-07-20T05:22:47.296Z,13.83
2023-07-20T05:23:47.215Z,13.90
2023-07-20T05:24:47.195Z,13.98
2023-07-20T05:25:47.203Z,14.11
2023-07-20T05:26:47.175Z,14.21
2023-07-20T05:27:47.182Z,14.19
2023-07-20T05:28:47.217Z,14.08
2023-07-20T05:29:47.140Z,14.48
2023-07-20T05:30:47.142Z,14.75
2023-07-20T05:31:47.197Z,14.97
2023-07-20T05:32:47.189Z,15.19
2023-07-20T05:33:47.147Z,15.03
2023-07-20T05:34:47.109Z,15.04
2023-07-20T05:35:47.100Z,15.18
2023-07-20T05:36:47.068Z,15.59
2023-07-20T05:37:47.052Z,15.68
2023-07-20T05:38:47.082Z,15.99
2023-07-20T05:39:47.049Z,16.08
2023-07-20T05:40:47.027Z,16.41
2023-07-20T05:41:47.015Z,16.54
2023-07-20T05:42:47.001Z,16.34
2023-07-20T05:43:46.988Z,16.23
2023-07-20T05:44:46.995Z,16.10
2023-07-20T05:45:46.994Z,16.18
2023-07-20T05:46:57.313Z,16.22
2023-07-20T05:47:48.060Z,16.14
2023-07-20T05:48:46.943Z,16.23
2023-07-20T05:49:46.929Z,16.26
2023-07-20T05:50:46.916Z,16.44
2023-07-20T05:51:46.903Z,16.81
2023-07-20T05:52:46.886Z,17.10
2023-07-20T05:53:46.896Z,16.98
2023-07-20T05:54:46.918Z,16.65
2023-07-20T05:55:46.868Z,16.48
2023-07-20T05:56:46.877Z,16.63
2023-07-20T05:57:46.843Z,16.81
2023-07-20T05:58:46.825Z,17.06
2023-07-20T05:59:46.830Z,16.87
2023-07-20T06:00:46.826Z,17.03
2023-07-20T06:01:46.872Z,17.06
2023-07-20T06:02:46.810Z,17.12
2023-07-20T06:03:46.782Z,17.51
2023-07-20T06:04:46.759Z,17.33
2023-07-20T06:05:46.851Z,17.10
2023-07-20T06:06:46.773Z,17.24
2023-07-20T06:07:46.733Z,17.43
2023-07-20T06:08:46.717Z,17.47
2023-07-20T06:09:46.732Z,17.27
2023-07-20T06:10:46.733Z,17.15
2023-07-20T06:11:46.694Z,17.17
2023-07-20T06:12:46.693Z,17.43
2023-07-20T06:13:46.672Z,17.58
2023-07-20T06:14:46.677Z,17.55
2023-07-20T06:15:46.681Z,17.74
2023-07-20T06:16:46.739Z,17.81
2023-07-20T06:17:46.675Z,17.71
2023-07-20T06:18:46.626Z,17.99
2023-07-20T06:19:46.602Z,17.96
2023-07-20T06:20:46.580Z,18.23
2023-07-20T06:21:46.566Z,18.35
2023-07-20T06:22:46.606Z,18.16
2023-07-20T06:23:46.554Z,18.10
2023-07-20T06:24:46.536Z,18.11
2023-07-20T06:25:46.540Z,18.09
2023-07-20T06:26:46.543Z,18.26
2023-07-20T06:27:46.524Z,18.23
2023-07-20T06:28:46.491Z,17.96
2023-07-20T06:29:46.486Z,18.07
2023-07-20T06:30:46.472Z,18.11
2023-07-20T06:31:46.529Z,18.11
2023-07-20T06:32:46.559Z,18.29
2023-07-20T06:33:46.476Z,18.35
2023-07-20T06:34:46.437Z,18.29
2023-07-20T06:35:46.414Z,18.34
2023-07-20T06:36:46.403Z,18.29
2023-07-20T06:37:46.399Z,18.31
2023-07-20T06:40:32.693Z,18.31
2023-07-20T06:40:46.362Z,18.14
2023-07-20T06:41:46.342Z,18.04
2023-07-20T06:43:48.630Z,18.34
2023-07-20T06:44:46.329Z,18.54
2023-07-20T06:45:46.356Z,18.50
2023-07-20T06:46:46.306Z,18.59
2023-07-20T06:47:46.336Z,18.89
2023-07-20T06:49:46.260Z,18.72
2023-07-20T06:50:46.269Z,18.53
2023-07-20T06:51:46.238Z,18.36
2023-07-20T06:52:46.237Z,18.42
2023-07-20T06:53:46.216Z,18.53
2023-07-20T06:54:46.228Z,18.68
2023-07-20T06:56:46.777Z,18.84
2023-07-20T06:57:48.889Z,18.89
2023-07-20T06:58:46.196Z,18.99
2023-07-20T07:00:46.136Z,18.75
2023-07-20T07:01:46.145Z,18.79
2023-07-20T07:02:47.663Z,18.57
2023-07-20T07:03:46.124Z,18.56
2023-07-20T07:04:46.400Z,18.94
2023-07-20T07:05:51.130Z,19.16
2023-07-20T07:06:47.069Z,19.17
2023-07-20T07:07:46.080Z,19.50
2023-07-20T07:08:46.053Z,19.55
2023-07-20T07:09:46.044Z,19.34
2023-07-20T07:10:46.046Z,18.87
2023-07-20T07:11:46.020Z,19.06
2023-07-20T07:12:46.055Z,18.84
2023-07-20T07:13:47.486Z,18.97
2023-07-20T07:14:46.024Z,18.86
2023-07-20T07:15:46.028Z,19.16
2023-07-20T07:16:46.021Z,19.16
2023-07-20T07:17:45.992Z,19.58
2023-07-20T07:18:45.942Z,19.76
2023-07-20T07:19:49.126Z,19.82
2023-07-20T07:20:45.923Z,20.04
2023-07-20T07:21:45.912Z,20.17
2023-07-20T07:22:46.807Z,20.19
2023-07-20T07:23:45.946Z,19.52
2023-07-20T07:24:45.888Z,19.31
2023-07-20T07:25:45.875Z,19.50
2023-07-20T07:26:45.855Z,19.43
2023-07-20T07:27:45.844Z,19.42
2023-07-20T07:28:45.849Z,19.60
2023-07-20T07:29:45.829Z,20.07
2023-07-20T07:30:45.844Z,20.10
2023-07-20T07:31:45.816Z,20.04
2023-07-20T07:32:45.820Z,19.87
2023-07-20T07:33:45.771Z,19.87
2023-07-20T07:34:45.772Z,19.92
2023-07-20T07:35:45.757Z,20.46
2023-07-20T07:36:45.736Z,20.88
2023-07-20T07:37:57.345Z,20.16
2023-07-20T07:39:15.447Z,20.00
2023-07-20T07:39:46.727Z,20.01
2023-07-20T07:40:45.729Z,19.80
2023-07-20T07:41:45.694Z,19.38
2023-07-20T07:42:45.690Z,19.85
2023-07-20T07:43:45.667Z,20.31
2023-07-20T07:44:45.673Z,20.41
2023-07-20T07:45:45.654Z,20.38
2023-07-20T07:46:45.737Z,20.19
2023-07-20T07:47:45.676Z,20.37
2023-07-20T07:48:45.630Z,20.34
2023-07-20T07:49:47.233Z,20.31
2023-07-20T07:50:45.592Z,20.53
2023-07-20T07:51:45.580Z,21.16
2023-07-20T07:52:45.580Z,21.16
2023-07-20T07:53:45.593Z,20.72
2023-07-20T07:54:45.552Z,20.60
2023-07-20T07:55:45.530Z,20.63
2023-07-20T07:56:45.543Z,20.81
2023-07-20T07:57:45.547Z,21.16
2023-07-20T07:58:45.502Z,20.56
2023-07-20T07:59:45.482Z,20.35
2023-07-20T08:00:45.532Z,19.95
2023-07-20T08:01:45.466Z,20.05
2023-07-20T08:02:45.573Z,20.20
2023-07-20T08:03:45.491Z,20.35
2023-07-20T08:04:45.436Z,20.37
2023-07-20T08:05:45.443Z,20.08
2023-07-20T08:06:45.409Z,20.04
2023-07-20T08:07:45.408Z,19.82
2023-07-20T08:08:45.402Z,19.52
2023-07-20T08:09:45.542Z,19.53
2023-07-20T08:10:45.370Z,19.89
2023-07-20T08:11:45.358Z,20.22
2023-07-20T08:12:45.349Z,20.10
2023-07-20T08:13:45.336Z,19.62
2023-07-20T08:14:45.323Z,19.40
2023-07-20T08:15:45.329Z,19.71
2023-07-20T08:16:45.362Z,19.76
2023-07-20T08:17:45.443Z,19.68
2023-07-20T08:18:45.401Z,19.67
2023-07-20T08:19:45.285Z,19.70
2023-07-20T08:20:45.264Z,19.58
2023-07-20T08:21:45.248Z,19.80
2023-07-20T08:22:47.062Z,20.01
2023-07-20T08:23:45.235Z,19.94
2023-07-20T08:24:45.268Z,19.89
2023-07-20T08:25:45.216Z,20.10
2023-07-20T08:26:45.259Z,20.31
2023-07-20T08:27:45.184Z,20.56
2023-07-20T08:28:45.173Z,20.34
2023-07-20T08:29:45.168Z,20.37
2023-07-20T08:30:45.193Z,20.19
2023-07-20T08:31:45.150Z,19.94
2023-07-20T08:32:45.189Z,19.82
2023-07-20T08:33:45.115Z,19.94
2023-07-20T08:34:45.147Z,20.19
2023-07-20T08:35:45.092Z,20.15
2023-07-20T08:36:45.085Z,20.37
2023-07-20T08:37:45.071Z,20.31
2023-07-20T08:38:45.073Z,20.26
2023-07-20T08:39:45.056Z,20.37
2023-07-20T08:40:45.042Z,20.64
2023-07-20T08:41:45.053Z,20.40
2023-07-20T08:42:45.013Z,20.82
2023-07-20T08:43:45.000Z,20.79
2023-07-20T08:44:45.005Z,20.76
2023-07-20T08:45:44.996Z,20.50
2023-07-20T08:46:45.015Z,20.76
2023-07-20T08:47:45.000Z,20.64
2023-07-20T08:48:44.950Z,20.58
2023-07-20T08:49:44.937Z,20.48
2023-07-20T08:50:44.993Z,20.78
2023-07-20T08:51:44.913Z,20.94
2023-07-20T08:52:44.905Z,20.87
2023-07-20T08:53:44.892Z,20.64
2023-07-20T08:54:44.884Z,20.46
2023-07-20T08:55:44.871Z,20.57
2023-07-20T08:56:44.870Z,20.54
2023-07-20T08:57:44.851Z,20.50
2023-07-20T08:58:44.833Z,20.69
2023-07-20T08:59:44.844Z,21.06
2023-07-20T09:00:47.027Z,21.52
2023-07-20T09:01:44.834Z,21.58
2023-07-20T09:02:44.855Z,21.46
2023-07-20T09:03:44.794Z,21.33
2023-07-20T09:04:44.763Z,21.48
2023-07-20T09:05:44.781Z,21.55
2023-07-20T09:06:45.399Z,21.68
2023-07-20T09:07:44.743Z,22.09
2023-07-20T09:08:44.727Z,21.59
2023-07-20T09:09:44.766Z,21.58
2023-07-20T09:10:44.713Z,21.59
2023-07-20T09:11:44.693Z,21.52
2023-07-20T09:12:44.685Z,21.71
2023-07-20T09:13:44.691Z,22.06
2023-07-20T09:14:44.662Z,22.12
2023-07-20T09:15:44.654Z,22.44
2023-07-20T09:16:44.665Z,22.14
2023-07-20T09:17:45.883Z,21.77
2023-07-20T09:18:44.654Z,21.59
2023-07-20T09:19:44.606Z,21.86
2023-07-20T09:20:44.624Z,22.42
2023-07-20T09:21:44.584Z,22.46
2023-07-20T09:22:44.603Z,22.85
2023-07-20T09:23:44.576Z,22.84
2023-07-20T09:24:45.040Z,22.79
2023-07-20T09:25:44.545Z,22.51
2023-07-20T09:26:44.549Z,22.69
2023-07-20T09:27:44.517Z,22.79
2023-07-20T09:28:45.077Z,22.79
2023-07-20T09:29:44.499Z,23.03
2023-07-20T09:30:53.824Z,22.81
2023-07-20T09:31:45.512Z,23.12
2023-07-20T09:34:01.125Z,23.23
2023-07-20T09:34:49.125Z,23.39
2023-07-20T09:35:44.597Z,23.42
2023-07-20T09:37:44.429Z,23.45
2023-07-20T09:40:15.659Z,23.38
2023-07-20T09:41:46.388Z,23.52
2023-07-20T09:43:25.795Z,23.79
2023-07-20T09:43:45.376Z,23.62
2023-07-20T09:47:44.344Z,23.52
2023-07-20T09:49:29.163Z,23.63
2023-07-20T09:50:44.297Z,23.12
2023-07-20T09:51:44.256Z,23.11
2023-07-20T09:53:44.249Z,23.19
2023-07-20T09:54:44.264Z,23.16
2023-07-20T09:55:44.219Z,23.16
2023-07-20T09:56:44.207Z,22.79
2023-07-20T09:57:44.188Z,22.82
2023-07-20T09:58:44.204Z,23.21
2023-07-20T09:59:44.166Z,23.37
2023-07-20T10:01:44.205Z,23.03
2023-07-20T10:02:44.212Z,23.12
2023-07-20T10:03:44.124Z,23.18
2023-07-20T10:04:44.138Z,23.39
2023-07-20T10:05:44.179Z,23.26
2023-07-20T10:06:44.097Z,23.18
2023-07-20T10:07:44.079Z,22.81
2023-07-20T10:09:44.086Z,23.11
2023-07-20T10:10:44.116Z,23.18
2023-07-20T10:11:44.035Z,23.60
2023-07-20T10:12:44.212Z,23.47
2023-07-20T10:13:46.027Z,23.39
2023-07-20T10:14:44.012Z,23.44
2023-07-20T10:15:44.000Z,23.53
2023-07-20T10:16:44.031Z,23.79
2023-07-20T10:17:44.015Z,24.06
2023-07-20T10:18:43.965Z,24.26
2023-07-20T10:19:50.703Z,24.31
2023-07-20T10:21:44.399Z,24.19
2023-07-20T10:22:47.137Z,24.36
2023-07-20T10:23:43.906Z,24.41
2023-07-20T10:24:43.971Z,24.42
2023-07-20T10:25:43.925Z,24.51
2023-07-20T10:26:43.920Z,24.27
2023-07-20T10:27:43.862Z,23.69
2023-07-20T10:28:43.858Z,23.56
2023-07-20T10:29:43.833Z,23.50
2023-07-20T10:30:43.834Z,23.78
2023-07-20T10:31:43.877Z,24.11
2023-07-20T10:32:43.814Z,23.92
2023-07-20T10:33:43.800Z,23.59
2023-07-20T10:34:43.823Z,23.93
2023-07-20T10:35:43.794Z,24.23
2023-07-20T10:36:44.935Z,24.55
2023-07-20T10:37:43.748Z,24.64
2023-07-20T10:38:43.747Z,24.75
2023-07-20T10:39:43.770Z,24.80
2023-07-20T10:40:43.751Z,24.98
2023-07-20T10:41:43.717Z,25.12
2023-07-20T10:42:43.744Z,24.83
2023-07-20T10:43:43.694Z,24.86
2023-07-20T10:44:43.688Z,24.87
2023-07-20T10:45:43.662Z,25.04
2023-07-20T10:46:43.747Z,24.90
2023-07-20T10:47:43.653Z,24.84
2023-07-20T10:48:43.630Z,24.97
2023-07-20T10:49:43.624Z,25.12
2023-07-20T10:50:43.615Z,25.16
2023-07-20T10:51:43.618Z,25.09
2023-07-20T10:52:43.599Z,25.01
2023-07-20T10:53:43.596Z,25.02
2023-07-20T10:54:44.283Z,25.12
2023-07-20T10:55:43.558Z,24.63
2023-07-20T10:56:43.572Z,24.23
2023-07-20T10:57:43.541Z,24.51
2023-07-20T10:58:43.778Z,24.86
2023-07-20T10:59:45.356Z,24.29
2023-07-20T11:00:43.504Z,23.69
2023-07-20T11:01:43.502Z,23.79
2023-07-20T11:02:43.573Z,23.54
2023-07-20T11:04:43.617Z,23.19
2023-07-20T11:05:43.611Z,23.53
2023-07-20T11:06:43.437Z,23.67
2023-07-20T11:07:43.423Z,23.92
2023-07-20T11:08:43.451Z,24.09
2023-07-20T11:09:43.402Z,24.52
2023-07-20T11:10:43.394Z,24.23
2023-07-20T11:11:43.380Z,23.79
2023-07-20T11:12:43.386Z,23.60
2023-07-20T11:13:43.361Z,24.21
2023-07-20T11:14:43.395Z,24.19
2023-07-20T11:15:43.340Z,24.31
2023-07-20T11:16:43.476Z,23.92
2023-07-20T11:17:43.364Z,23.74
2023-07-20T11:18:43.329Z,23.62
2023-07-20T11:20:43.295Z,23.78
2023-07-20T11:21:56.169Z,23.86
2023-07-20T11:22:44.267Z,23.81
2023-07-20T11:23:43.257Z,24.00
2023-07-20T11:24:43.332Z,24.26
2023-07-20T11:25:43.236Z,24.15
2023-07-20T11:26:43.394Z,23.71
2023-07-20T11:27:43.230Z,23.79
2023-07-20T11:28:43.214Z,23.90
2023-07-20T11:29:43.209Z,23.81
2023-07-20T11:30:43.306Z,23.90
2023-07-20T11:31:43.167Z,23.99
2023-07-20T11:32:43.234Z,24.42
2023-07-20T11:33:43.144Z,24.82
2023-07-20T11:34:43.153Z,24.86
2023-07-20T11:35:43.142Z,24.79
2023-07-20T11:37:43.328Z,24.29
2023-07-20T11:38:43.310Z,24.26
2023-07-20T11:39:43.097Z,24.34
2023-07-20T11:40:43.072Z,24.39
2023-07-20T11:41:43.068Z,24.53
2023-07-20T11:43:43.039Z,24.97
2023-07-20T11:44:43.101Z,24.71
2023-07-20T11:45:43.015Z,24.70
2023-07-20T11:46:43.083Z,24.52
2023-07-20T11:47:43.134Z,24.14
2023-07-20T11:48:42.985Z,24.49
2023-07-20T11:49:43.048Z,24.61
2023-07-20T11:50:42.965Z,24.83
2023-07-20T11:51:42.952Z,25.05
2023-07-20T11:52:42.941Z,25.12
2023-07-20T11:53:42.946Z,24.99
2023-07-20T11:54:46.077Z,25.16
2023-07-20T11:55:43.908Z,24.92
2023-07-20T11:56:42.921Z,25.11
2023-07-20T11:57:42.886Z,25.44
2023-07-20T11:58:42.882Z,25.29
2023-07-20T11:59:42.884Z,25.31
2023-07-20T12:00:42.864Z,25.16
2023-07-20T12:01:42.888Z,25.46
2023-07-20T12:02:42.932Z,25.60
2023-07-20T12:03:42.832Z,25.26
2023-07-20T12:04:42.819Z,25.29
2023-07-20T12:06:42.788Z,25.29
2023-07-20T12:07:42.790Z,25.64
2023-07-20T12:08:42.780Z,25.85
2023-07-20T12:09:51.283Z,25.85
2023-07-20T12:10:43.747Z,25.90
2023-07-20T12:11:42.733Z,25.74
2023-07-20T12:12:42.921Z,25.64
2023-07-20T12:13:42.729Z,25.46
2023-07-20T12:14:42.701Z,25.71
2023-07-20T12:15:42.695Z,25.74
2023-07-20T12:16:42.794Z,25.46
2023-07-20T12:17:42.832Z,25.17
2023-07-20T12:18:42.750Z,25.38
2023-07-20T12:19:42.652Z,25.39
2023-07-20T12:20:42.640Z,25.42
2023-07-20T12:21:42.631Z,25.53
2023-07-20T12:22:42.616Z,25.57
2023-07-20T12:23:42.625Z,25.60
2023-07-20T12:24:42.706Z,25.30
2023-07-20T12:25:42.687Z,25.39
2023-07-20T12:26:42.579Z,25.31
2023-07-20T12:27:42.568Z,25.23
2023-07-20T12:28:42.558Z,25.16
2023-07-20T12:29:42.557Z,24.99
2023-07-20T12:30:42.564Z,24.99
2023-07-20T12:31:42.564Z,25.24
2023-07-20T12:32:42.589Z,25.51
2023-07-20T12:33:42.503Z,25.72
2023-07-20T12:34:42.536Z,26.04
2023-07-20T12:35:42.482Z,26.29
2023-07-20T12:36:42.463Z,25.82
2023-07-20T12:37:42.457Z,25.66
2023-07-20T12:38:42.447Z,25.66
2023-07-20T12:39:42.445Z,25.69
2023-07-20T12:40:42.444Z,25.61
2023-07-20T12:41:42.411Z,25.54
2023-07-20T12:42:42.407Z,25.12
2023-07-20T12:43:42.430Z,24.68
2023-07-20T12:44:42.396Z,25.14
2023-07-20T12:45:42.419Z,25.26
2023-07-20T12:46:42.393Z,25.11
2023-07-20T12:47:42.401Z,25.14
2023-07-20T12:48:42.373Z,25.09
2023-07-20T12:49:42.336Z,25.42
2023-07-20T12:50:42.346Z,25.63
2023-07-20T12:51:42.302Z,25.66
2023-07-20T12:52:42.296Z,25.54
2023-07-20T12:53:42.280Z,25.83
2023-07-20T12:54:42.326Z,26.01
2023-07-20T12:55:42.287Z,26.31
2023-07-20T12:57:42.260Z,25.81
2023-07-20T12:58:42.232Z,25.57
2023-07-20T12:59:42.249Z,25.76
2023-07-20T13:00:42.206Z,25.85
2023-07-20T13:01:42.277Z,26.17
2023-07-20T13:02:42.211Z,26.16
2023-07-20T13:04:42.178Z,25.59
2023-07-20T13:06:42.167Z,25.31
2023-07-20T13:08:42.127Z,25.30
2023-07-20T13:09:42.115Z,25.20
2023-07-20T13:10:42.110Z,25.11
2023-07-20T13:11:42.100Z,24.98
2023-07-20T13:12:42.091Z,25.12
2023-07-20T13:13:42.070Z,25.11
2023-07-20T13:14:42.057Z,25.19
2023-07-20T13:15:42.050Z,25.41
2023-07-20T13:16:42.045Z,25.59
2023-07-20T13:17:42.117Z,25.67
2023-07-20T13:18:42.007Z,25.78
2023-07-20T13:19:42.021Z,25.74
2023-07-20T13:20:42.010Z,25.89